sensor_id;sensor_type;location;lat;lon;timestamp;P1;durP1;ratioP1;P2;durP2;ratioP2
13147;SDS011;6639;50.956;4.242;2024-03-23T00:53:16;5.82;;;3.85;;
13147;SDS011;6639;50.956;4.242;2024-03-23T00:55:42;8.57;;;3.95;;
13147;SDS011;6639;50.956;4.242;2024-03-23T00:58:09;6.10;;;3.78;;
13147;SDS011;6639;50.956;4.242;2024-03-23T01:00:35;7.18;;;3.22;;
13147;SDS011;6639;50.956;4.242;2024-03-23T01:03:04;5.40;;;3.42;;
13147;SDS011;6639;50.956;4.242;2024-03-23T01:05:30;8.02;;;4.18;;
13147;SDS011;6639;50.956;4.242;2024-03-23T01:07:56;9.10;;;4.25;;
13147;SDS011;6639;50.956;4.242;2024-03-23T01:10:22;5.53;;;3.40;;
13147;SDS011;6639;50.956;4.242;2024-03-23T01:12:51;6.85;;;4.30;;
13147;SDS011;6639;50.956;4.242;2024-03-23T01:15:16;8.45;;;4.05;;
13147;SDS011;6639;50.956;4.242;2024-03-23T01:17:43;6.32;;;3.85;;
13147;SDS011;6639;50.956;4.242;2024-03-23T01:20:11;5.32;;;3.83;;
13147;SDS011;6639;50.956;4.242;2024-03-23T01:22:38;6.20;;;4.38;;
13147;SDS011;6639;50.956;4.242;2024-03-23T01:25:04;7.88;;;4.35;;
13147;SDS011;6639;50.956;4.242;2024-03-23T01:27:31;7.60;;;5.05;;
13147;SDS011;6639;50.956;4.242;2024-03-23T01:29:57;10.30;;;4.80;;
13147;SDS011;6639;50.956;4.242;2024-03-23T01:32:24;8.95;;;5.15;;
13147;SDS011;6639;50.956;4.242;2024-03-23T01:34:49;8.38;;;5.00;;
13147;SDS011;6639;50.956;4.242;2024-03-23T01:37:18;7.10;;;4.97;;
13147;SDS011;6639;50.956;4.242;2024-03-23T01:39:44;9.63;;;4.25;;
13147;SDS011;6639;50.956;4.242;2024-03-23T01:42:10;9.00;;;4.63;;
13147;SDS011;6639;50.956;4.242;2024-03-23T01:44:36;10.95;;;5.32;;
13147;SDS011;6639;50.956;4.242;2024-03-23T01:47:04;13.60;;;5.50;;
13147;SDS011;6639;50.956;4.242;2024-03-23T01:49:31;11.02;;;6.68;;
13147;SDS011;6639;50.956;4.242;2024-03-23T01:51:58;11.30;;;5.93;;
13147;SDS011;6639;50.956;4.242;2024-03-23T01:54:26;12.68;;;6.05;;
13147;SDS011;6639;50.956;4.242;2024-03-23T01:56:53;10.43;;;6.57;;
13147;SDS011;6639;50.956;4.242;2024-03-23T01:59:19;12.75;;;7.28;;
13147;SDS011;6639;50.956;4.242;2024-03-23T02:01:46;9.75;;;6.82;;
13147;SDS011;6639;50.956;4.242;2024-03-23T02:04:12;12.82;;;6.78;;
13147;SDS011;6639;50.956;4.242;2024-03-23T02:06:40;12.93;;;6.55;;
13147;SDS011;6639;50.956;4.242;2024-03-23T02:09:06;14.70;;;6.78;;
13147;SDS011;6639;50.956;4.242;2024-03-23T02:11:34;10.68;;;6.65;;
13147;SDS011;6639;50.956;4.242;2024-03-23T02:14:00;10.55;;;5.97;;
13147;SDS011;6639;50.956;4.242;2024-03-23T02:16:27;15.10;;;6.80;;
13147;SDS011;6639;50.956;4.242;2024-03-23T02:18:53;14.73;;;6.28;;
13147;SDS011;6639;50.956;4.242;2024-03-23T02:21:20;14.73;;;6.80;;
13147;SDS011;6639;50.956;4.242;2024-03-23T02:23:47;14.57;;;6.43;;
13147;SDS011;6639;50.956;4.242;2024-03-23T02:26:14;12.52;;;6.10;;
13147;SDS011;6639;50.956;4.242;2024-03-23T02:28:40;15.85;;;6.82;;
13147;SDS011;6639;50.956;4.242;2024-03-23T02:31:07;11.10;;;6.10;;
13147;SDS011;6639;50.956;4.242;2024-03-23T02:33:34;12.82;;;6.80;;
13147;SDS011;6639;50.956;4.242;2024-03-23T02:36:03;11.07;;;6.53;;
13147;SDS011;6639;50.956;4.242;2024-03-23T02:38:29;11.68;;;6.88;;
13147;SDS011;6639;50.956;4.242;2024-03-23T02:41:02;15.80;;;6.35;;
13147;SDS011;6639;50.956;4.242;2024-03-23T02:43:28;9.95;;;5.65;;
13147;SDS011;6639;50.956;4.242;2024-03-23T02:45:55;12.35;;;6.45;;
13147;SDS011;6639;50.956;4.242;2024-03-23T02:48:21;11.52;;;6.07;;
13147;SDS011;6639;50.956;4.242;2024-03-23T02:50:48;15.98;;;6.90;;
13147;SDS011;6639;50.956;4.242;2024-03-23T02:53:14;16.33;;;6.35;;
13147;SDS011;6639;50.956;4.242;2024-03-23T02:55:41;18.48;;;7.10;;
13147;SDS011;6639;50.956;4.242;2024-03-23T02:58:09;12.75;;;6.80;;
13147;SDS011;6639;50.956;4.242;2024-03-23T03:00:36;12.02;;;6.20;;
13147;SDS011;6639;50.956;4.242;2024-03-23T03:03:02;12.07;;;5.60;;
13147;SDS011;6639;50.956;4.242;2024-03-23T03:05:29;12.02;;;6.00;;
13147;SDS011;6639;50.956;4.242;2024-03-23T03:07:55;9.73;;;5.60;;
13147;SDS011;6639;50.956;4.242;2024-03-23T03:10:22;16.15;;;6.53;;
13147;SDS011;6639;50.956;4.242;2024-03-23T03:12:48;9.98;;;5.88;;
13147;SDS011;6639;50.956;4.242;2024-03-23T03:15:16;14.52;;;5.65;;
13147;SDS011;6639;50.956;4.242;2024-03-23T03:17:42;10.90;;;5.95;;
13147;SDS011;6639;50.956;4.242;2024-03-23T03:20:09;12.70;;;6.28;;
13147;SDS011;6639;50.956;4.242;2024-03-23T03:22:38;12.90;;;6.35;;
13147;SDS011;6639;50.956;4.242;2024-03-23T03:25:05;13.55;;;6.55;;
13147;SDS011;6639;50.956;4.242;2024-03-23T03:27:32;12.10;;;7.07;;
13147;SDS011;6639;50.956;4.242;2024-03-23T03:29:59;13.88;;;6.43;;
13147;SDS011;6639;50.956;4.242;2024-03-23T03:32:28;15.38;;;7.20;;
13147;SDS011;6639;50.956;4.242;2024-03-23T03:34:55;10.40;;;5.45;;
13147;SDS011;6639;50.956;4.242;2024-03-23T03:37:21;15.48;;;5.95;;
13147;SDS011;6639;50.956;4.242;2024-03-23T03:39:48;14.60;;;7.70;;
13147;SDS011;6639;50.956;4.242;2024-03-23T03:42:14;13.32;;;6.45;;
13147;SDS011;6639;50.956;4.242;2024-03-23T03:44:41;15.48;;;6.95;;
13147;SDS011;6639;50.956;4.242;2024-03-23T03:47:07;15.75;;;6.72;;
13147;SDS011;6639;50.956;4.242;2024-03-23T03:49:35;9.02;;;6.03;;
13147;SDS011;6639;50.956;4.242;2024-03-23T03:52:01;11.95;;;6.70;;
13147;SDS011;6639;50.956;4.242;2024-03-23T03:54:28;15.30;;;6.88;;
13147;SDS011;6639;50.956;4.242;2024-03-23T03:56:54;13.43;;;6.05;;
13147;SDS011;6639;50.956;4.242;2024-03-23T03:59:21;17.27;;;7.22;;
13147;SDS011;6639;50.956;4.242;2024-03-23T04:01:47;13.50;;;7.18;;
13147;SDS011;6639;50.956;4.242;2024-03-23T04:04:13;10.35;;;6.75;;
13147;SDS011;6639;50.956;4.242;2024-03-23T04:06:42;11.00;;;5.97;;
13147;SDS011;6639;50.956;4.242;2024-03-23T04:09:09;13.68;;;6.60;;
13147;SDS011;6639;50.956;4.242;2024-03-23T04:11:35;11.73;;;6.43;;
13147;SDS011;6639;50.956;4.242;2024-03-23T04:14:02;9.23;;;5.93;;
13147;SDS011;6639;50.956;4.242;2024-03-23T04:16:28;13.65;;;6.32;;
13147;SDS011;6639;50.956;4.242;2024-03-23T04:18:56;11.05;;;5.40;;
13147;SDS011;6639;50.956;4.242;2024-03-23T04:21:22;10.75;;;5.90;;
13147;SDS011;6639;50.956;4.242;2024-03-23T04:23:51;12.65;;;5.70;;
13147;SDS011;6639;50.956;4.242;2024-03-23T04:26:17;12.55;;;6.45;;
13147;SDS011;6639;50.956;4.242;2024-03-23T04:28:44;9.82;;;5.63;;
13147;SDS011;6639;50.956;4.242;2024-03-23T04:31:10;11.68;;;5.75;;
13147;SDS011;6639;50.956;4.242;2024-03-23T04:33:37;9.50;;;5.75;;
13147;SDS011;6639;50.956;4.242;2024-03-23T04:36:03;15.32;;;5.13;;
13147;SDS011;6639;50.956;4.242;2024-03-23T04:38:30;11.07;;;4.78;;
13147;SDS011;6639;50.956;4.242;2024-03-23T04:40:58;8.70;;;5.22;;
13147;SDS011;6639;50.956;4.242;2024-03-23T04:43:27;10.30;;;4.80;;
13147;SDS011;6639;50.956;4.242;2024-03-23T04:45:54;8.35;;;5.03;;
13147;SDS011;6639;50.956;4.242;2024-03-23T04:48:21;10.68;;;4.90;;
13147;SDS011;6639;50.956;4.242;2024-03-23T04:50:49;9.15;;;5.20;;
13147;SDS011;6639;50.956;4.242;2024-03-23T04:53:16;8.77;;;4.57;;
13147;SDS011;6639;50.956;4.242;2024-03-23T04:55:43;7.65;;;4.72;;
13147;SDS011;6639;50.956;4.242;2024-03-23T04:58:11;13.48;;;5.20;;
13147;SDS011;6639;50.956;4.242;2024-03-23T05:00:38;12.93;;;4.70;;
13147;SDS011;6639;50.956;4.242;2024-03-23T05:03:05;11.48;;;4.72;;
13147;SDS011;6639;50.956;4.242;2024-03-23T05:05:31;8.18;;;4.75;;
13147;SDS011;6639;50.956;4.242;2024-03-23T05:07:58;11.05;;;4.45;;
13147;SDS011;6639;50.956;4.242;2024-03-23T05:10:24;8.55;;;4.60;;
13147;SDS011;6639;50.956;4.242;2024-03-23T05:12:51;10.95;;;4.78;;
13147;SDS011;6639;50.956;4.242;2024-03-23T05:15:20;14.65;;;5.50;;
13147;SDS011;6639;50.956;4.242;2024-03-23T05:17:45;12.50;;;4.75;;
13147;SDS011;6639;50.956;4.242;2024-03-23T05:20:12;11.80;;;4.65;;
13147;SDS011;6639;50.956;4.242;2024-03-23T05:22:39;10.98;;;4.95;;
13147;SDS011;6639;50.956;4.242;2024-03-23T05:25:06;11.25;;;5.18;;
13147;SDS011;6639;50.956;4.242;2024-03-23T05:27:36;8.63;;;5.28;;
13147;SDS011;6639;50.956;4.242;2024-03-23T05:30:03;6.95;;;4.28;;
13147;SDS011;6639;50.956;4.242;2024-03-23T05:32:32;7.97;;;5.00;;
13147;SDS011;6639;50.956;4.242;2024-03-23T05:34:59;8.38;;;5.13;;
13147;SDS011;6639;50.956;4.242;2024-03-23T05:37:25;11.63;;;4.78;;
13147;SDS011;6639;50.956;4.242;2024-03-23T05:39:51;9.48;;;5.05;;
13147;SDS011;6639;50.956;4.242;2024-03-23T05:42:17;9.40;;;4.57;;
13147;SDS011;6639;50.956;4.242;2024-03-23T05:44:45;10.30;;;4.47;;
13147;SDS011;6639;50.956;4.242;2024-03-23T05:47:11;11.90;;;4.40;;
13147;SDS011;6639;50.956;4.242;2024-03-23T05:49:41;10.48;;;5.07;;
13147;SDS011;6639;50.956;4.242;2024-03-23T05:52:07;13.15;;;4.43;;
13147;SDS011;6639;50.956;4.242;2024-03-23T05:54:34;10.68;;;4.88;;
13147;SDS011;6639;50.956;4.242;2024-03-23T05:56:59;12.43;;;3.97;;
13147;SDS011;6639;50.956;4.242;2024-03-23T05:59:26;14.02;;;3.90;;
13147;SDS011;6639;50.956;4.242;2024-03-23T06:01:52;11.82;;;4.35;;
13147;SDS011;6639;50.956;4.242;2024-03-23T06:04:19;9.88;;;3.63;;
13147;SDS011;6639;50.956;4.242;2024-03-23T06:06:47;8.57;;;3.60;;
13147;SDS011;6639;50.956;4.242;2024-03-23T06:09:14;8.13;;;3.55;;
13147;SDS011;6639;50.956;4.242;2024-03-23T06:11:40;7.35;;;3.00;;
13147;SDS011;6639;50.956;4.242;2024-03-23T06:14:07;8.55;;;3.70;;
13147;SDS011;6639;50.956;4.242;2024-03-23T06:16:33;9.98;;;3.63;;
13147;SDS011;6639;50.956;4.242;2024-03-23T06:19:00;9.32;;;3.55;;
13147;SDS011;6639;50.956;4.242;2024-03-23T06:21:28;8.38;;;3.22;;
13147;SDS011;6639;50.956;4.242;2024-03-23T06:23:57;11.40;;;3.17;;
13147;SDS011;6639;50.956;4.242;2024-03-23T06:26:22;8.13;;;2.72;;
13147;SDS011;6639;50.956;4.242;2024-03-23T06:28:49;8.98;;;3.55;;
13147;SDS011;6639;50.956;4.242;2024-03-23T06:31:15;11.35;;;3.22;;
13147;SDS011;6639;50.956;4.242;2024-03-23T06:33:43;11.77;;;3.17;;
13147;SDS011;6639;50.956;4.242;2024-03-23T06:36:09;7.65;;;2.67;;
13147;SDS011;6639;50.956;4.242;2024-03-23T06:38:36;8.35;;;3.00;;
13147;SDS011;6639;50.956;4.242;2024-03-23T06:41:04;9.40;;;2.70;;
13147;SDS011;6639;50.956;4.242;2024-03-23T06:43:32;9.25;;;2.72;;
13147;SDS011;6639;50.956;4.242;2024-03-23T06:45:58;13.25;;;3.00;;
13147;SDS011;6639;50.956;4.242;2024-03-23T06:48:25;11.45;;;2.90;;
13147;SDS011;6639;50.956;4.242;2024-03-23T06:50:55;10.10;;;2.97;;
13147;SDS011;6639;50.956;4.242;2024-03-23T06:53:22;10.43;;;2.90;;
13147;SDS011;6639;50.956;4.242;2024-03-23T06:55:50;8.90;;;3.03;;
13147;SDS011;6639;50.956;4.242;2024-03-23T06:58:20;8.35;;;2.67;;
13147;SDS011;6639;50.956;4.242;2024-03-23T07:00:46;7.00;;;3.13;;
13147;SDS011;6639;50.956;4.242;2024-03-23T07:03:14;10.90;;;3.47;;
13147;SDS011;6639;50.956;4.242;2024-03-23T07:05:40;9.93;;;2.78;;
13147;SDS011;6639;50.956;4.242;2024-03-23T07:08:07;9.98;;;2.53;;
13147;SDS011;6639;50.956;4.242;2024-03-23T07:10:33;6.68;;;2.28;;
13147;SDS011;6639;50.956;4.242;2024-03-23T07:13:00;6.05;;;2.38;;
13147;SDS011;6639;50.956;4.242;2024-03-23T07:15:30;6.00;;;2.72;;
13147;SDS011;6639;50.956;4.242;2024-03-23T07:17:57;8.18;;;2.00;;
13147;SDS011;6639;50.956;4.242;2024-03-23T07:20:31;7.78;;;1.73;;
13147;SDS011;6639;50.956;4.242;2024-03-23T07:22:58;3.17;;;2.08;;
13147;SDS011;6639;50.956;4.242;2024-03-23T07:25:23;10.13;;;2.25;;
13147;SDS011;6639;50.956;4.242;2024-03-23T07:27:52;3.22;;;2.50;;
13147;SDS011;6639;50.956;4.242;2024-03-23T07:30:18;6.25;;;2.50;;
13147;SDS011;6639;50.956;4.242;2024-03-23T07:32:46;6.13;;;2.67;;
13147;SDS011;6639;50.956;4.242;2024-03-23T07:35:12;7.07;;;2.67;;
13147;SDS011;6639;50.956;4.242;2024-03-23T07:37:40;5.40;;;2.55;;
13147;SDS011;6639;50.956;4.242;2024-03-23T07:40:07;6.97;;;3.05;;
13147;SDS011;6639;50.956;4.242;2024-03-23T07:42:35;7.70;;;2.75;;
13147;SDS011;6639;50.956;4.242;2024-03-23T07:45:01;6.32;;;2.60;;
13147;SDS011;6639;50.956;4.242;2024-03-23T07:47:27;9.20;;;2.97;;
13147;SDS011;6639;50.956;4.242;2024-03-23T07:49:55;12.30;;;2.83;;
13147;SDS011;6639;50.956;4.242;2024-03-23T07:52:21;7.25;;;2.72;;
13147;SDS011;6639;50.956;4.242;2024-03-23T07:54:47;5.68;;;2.40;;
13147;SDS011;6639;50.956;4.242;2024-03-23T07:57:14;10.02;;;2.85;;
13147;SDS011;6639;50.956;4.242;2024-03-23T07:59:41;8.43;;;3.00;;
13147;SDS011;6639;50.956;4.242;2024-03-23T08:02:08;11.90;;;2.97;;
13147;SDS011;6639;50.956;4.242;2024-03-23T08:04:35;7.30;;;2.50;;
13147;SDS011;6639;50.956;4.242;2024-03-23T08:07:03;8.73;;;2.30;;
13147;SDS011;6639;50.956;4.242;2024-03-23T08:09:30;6.70;;;2.83;;
13147;SDS011;6639;50.956;4.242;2024-03-23T08:11:56;16.38;;;3.47;;
13147;SDS011;6639;50.956;4.242;2024-03-23T08:14:23;9.48;;;2.42;;
13147;SDS011;6639;50.956;4.242;2024-03-23T08:16:49;8.10;;;2.15;;
13147;SDS011;6639;50.956;4.242;2024-03-23T08:19:18;6.63;;;2.45;;
13147;SDS011;6639;50.956;4.242;2024-03-23T08:21:44;6.63;;;2.78;;
13147;SDS011;6639;50.956;4.242;2024-03-23T08:24:13;5.78;;;2.45;;
13147;SDS011;6639;50.956;4.242;2024-03-23T08:26:39;5.75;;;2.13;;
13147;SDS011;6639;50.956;4.242;2024-03-23T08:29:06;7.15;;;2.75;;
13147;SDS011;6639;50.956;4.242;2024-03-23T08:31:32;6.70;;;2.53;;
13147;SDS011;6639;50.956;4.242;2024-03-23T08:33:59;5.88;;;2.67;;
13147;SDS011;6639;50.956;4.242;2024-03-23T08:36:25;8.95;;;2.75;;
13147;SDS011;6639;50.956;4.242;2024-03-23T08:38:51;5.28;;;2.63;;
13147;SDS011;6639;50.956;4.242;2024-03-23T08:41:21;4.45;;;2.13;;
13147;SDS011;6639;50.956;4.242;2024-03-23T08:43:48;8.27;;;2.85;;
13147;SDS011;6639;50.956;4.242;2024-03-23T08:46:14;4.38;;;1.58;;
13147;SDS011;6639;50.956;4.242;2024-03-23T08:48:42;4.18;;;2.13;;
13147;SDS011;6639;50.956;4.242;2024-03-23T08:51:10;9.10;;;2.28;;
13147;SDS011;6639;50.956;4.242;2024-03-23T08:53:38;7.75;;;3.10;;
13147;SDS011;6639;50.956;4.242;2024-03-23T08:56:05;6.93;;;2.22;;
13147;SDS011;6639;50.956;4.242;2024-03-23T08:58:34;8.82;;;2.35;;
13147;SDS011;6639;50.956;4.242;2024-03-23T09:01:06;3.95;;;2.10;;
13147;SDS011;6639;50.956;4.242;2024-03-23T09:03:34;7.15;;;3.25;;
13147;SDS011;6639;50.956;4.242;2024-03-23T09:06:00;5.47;;;2.50;;
13147;SDS011;6639;50.956;4.242;2024-03-23T09:08:27;6.93;;;2.58;;
13147;SDS011;6639;50.956;4.242;2024-03-23T09:10:53;8.60;;;2.60;;
13147;SDS011;6639;50.956;4.242;2024-03-23T09:13:20;5.40;;;2.05;;
13147;SDS011;6639;50.956;4.242;2024-03-23T09:15:49;7.28;;;2.30;;
13147;SDS011;6639;50.956;4.242;2024-03-23T09:18:16;4.65;;;2.22;;
13147;SDS011;6639;50.956;4.242;2024-03-23T09:20:43;5.63;;;2.25;;
13147;SDS011;6639;50.956;4.242;2024-03-23T09:23:09;6.18;;;2.40;;
13147;SDS011;6639;50.956;4.242;2024-03-23T09:25:36;5.43;;;1.83;;
13147;SDS011;6639;50.956;4.242;2024-03-23T09:28:03;4.30;;;2.05;;
13147;SDS011;6639;50.956;4.242;2024-03-23T09:30:31;5.35;;;2.47;;
13147;SDS011;6639;50.956;4.242;2024-03-23T09:32:59;5.15;;;2.03;;
13147;SDS011;6639;50.956;4.242;2024-03-23T09:35:26;6.68;;;2.60;;
13147;SDS011;6639;50.956;4.242;2024-03-23T09:37:52;3.65;;;2.08;;
13147;SDS011;6639;50.956;4.242;2024-03-23T09:40:19;6.10;;;2.35;;
13147;SDS011;6639;50.956;4.242;2024-03-23T09:42:49;4.32;;;2.50;;
13147;SDS011;6639;50.956;4.242;2024-03-23T09:45:17;3.17;;;2.30;;
13147;SDS011;6639;50.956;4.242;2024-03-23T09:47:46;7.85;;;2.20;;
13147;SDS011;6639;50.956;4.242;2024-03-23T09:50:16;6.13;;;2.30;;
13147;SDS011;6639;50.956;4.242;2024-03-23T09:52:41;4.50;;;2.67;;
13147;SDS011;6639;50.956;4.242;2024-03-23T09:55:08;6.30;;;2.22;;
13147;SDS011;6639;50.956;4.242;2024-03-23T09:57:35;5.38;;;2.15;;
13147;SDS011;6639;50.956;4.242;2024-03-23T10:00:02;3.70;;;2.15;;
13147;SDS011;6639;50.956;4.242;2024-03-23T10:02:28;5.10;;;2.10;;
13147;SDS011;6639;50.956;4.242;2024-03-23T10:04:55;4.82;;;2.00;;
13147;SDS011;6639;50.956;4.242;2024-03-23T10:07:23;6.45;;;2.35;;
13147;SDS011;6639;50.956;4.242;2024-03-23T10:09:53;3.30;;;2.28;;
13147;SDS011;6639;50.956;4.242;2024-03-23T10:12:19;5.85;;;2.08;;
13147;SDS011;6639;50.956;4.242;2024-03-23T10:14:46;5.10;;;1.85;;
13147;SDS011;6639;50.956;4.242;2024-03-23T10:17:13;5.32;;;2.58;;
13147;SDS011;6639;50.956;4.242;2024-03-23T10:19:42;4.55;;;2.45;;
13147;SDS011;6639;50.956;4.242;2024-03-23T10:22:09;9.73;;;3.28;;
13147;SDS011;6639;50.956;4.242;2024-03-23T10:24:42;3.25;;;2.42;;
13147;SDS011;6639;50.956;4.242;2024-03-23T10:27:08;7.53;;;3.35;;
13147;SDS011;6639;50.956;4.242;2024-03-23T10:29:35;7.45;;;2.95;;
13147;SDS011;6639;50.956;4.242;2024-03-23T10:32:08;6.85;;;3.03;;
13147;SDS011;6639;50.956;4.242;2024-03-23T10:34:36;6.55;;;3.28;;
13147;SDS011;6639;50.956;4.242;2024-03-23T10:37:04;5.57;;;2.63;;
13147;SDS011;6639;50.956;4.242;2024-03-23T10:39:32;5.35;;;2.63;;
13147;SDS011;6639;50.956;4.242;2024-03-23T10:42:01;2.60;;;1.98;;
13147;SDS011;6639;50.956;4.242;2024-03-23T10:44:29;7.30;;;2.72;;
13147;SDS011;6639;50.956;4.242;2024-03-23T10:46:56;6.00;;;2.60;;
13147;SDS011;6639;50.956;4.242;2024-03-23T10:49:26;6.68;;;2.63;;
13147;SDS011;6639;50.956;4.242;2024-03-23T10:51:54;5.25;;;2.55;;
13147;SDS011;6639;50.956;4.242;2024-03-23T10:54:23;5.32;;;3.30;;
13147;SDS011;6639;50.956;4.242;2024-03-23T10:56:49;6.63;;;2.53;;
13147;SDS011;6639;50.956;4.242;2024-03-23T10:59:21;4.85;;;2.63;;
13147;SDS011;6639;50.956;4.242;2024-03-23T11:01:54;5.55;;;2.65;;
13147;SDS011;6639;50.956;4.242;2024-03-23T11:04:31;4.50;;;2.63;;
13147;SDS011;6639;50.956;4.242;2024-03-23T11:06:58;4.35;;;2.42;;
13147;SDS011;6639;50.956;4.242;2024-03-23T11:09:43;5.72;;;2.15;;
13147;SDS011;6639;50.956;4.242;2024-03-23T11:12:31;2.63;;;1.67;;
13147;SDS011;6639;50.956;4.242;2024-03-23T11:15:01;2.65;;;1.88;;
13147;SDS011;6639;50.956;4.242;2024-03-23T11:17:29;3.97;;;1.38;;
13147;SDS011;6639;50.956;4.242;2024-03-23T11:19:56;5.63;;;1.77;;
13147;SDS011;6639;50.956;4.242;2024-03-23T11:22:37;5.60;;;2.17;;
13147;SDS011;6639;50.956;4.242;2024-03-23T11:25:12;4.63;;;1.73;;
13147;SDS011;6639;50.956;4.242;2024-03-23T11:27:38;5.40;;;1.95;;
13147;SDS011;6639;50.956;4.242;2024-03-23T11:30:17;4.30;;;1.38;;
13147;SDS011;6639;50.956;4.242;2024-03-23T11:32:44;2.95;;;1.23;;
13147;SDS011;6639;50.956;4.242;2024-03-23T11:35:24;3.28;;;1.38;;
13147;SDS011;6639;50.956;4.242;2024-03-23T11:38:01;2.47;;;1.50;;
13147;SDS011;6639;50.956;4.242;2024-03-23T11:40:32;3.17;;;1.40;;
13147;SDS011;6639;50.956;4.242;2024-03-23T11:42:59;4.25;;;1.50;;
13147;SDS011;6639;50.956;4.242;2024-03-23T11:45:29;2.35;;;1.40;;
13147;SDS011;6639;50.956;4.242;2024-03-23T11:48:03;6.95;;;1.30;;
13147;SDS011;6639;50.956;4.242;2024-03-23T11:50:33;3.55;;;1.50;;
13147;SDS011;6639;50.956;4.242;2024-03-23T11:53:12;1.77;;;1.00;;
13147;SDS011;6639;50.956;4.242;2024-03-23T11:55:45;3.08;;;1.42;;
13147;SDS011;6639;50.956;4.242;2024-03-23T11:58:12;2.88;;;1.23;;
13147;SDS011;6639;50.956;4.242;2024-03-23T12:00:41;5.45;;;1.10;;
13147;SDS011;6639;50.956;4.242;2024-03-23T12:03:07;5.85;;;1.58;;
13147;SDS011;6639;50.956;4.242;2024-03-23T12:05:36;4.78;;;1.30;;
13147;SDS011;6639;50.956;4.242;2024-03-23T12:08:21;2.95;;;1.13;;
13147;SDS011;6639;50.956;4.242;2024-03-23T12:11:40;3.97;;;1.42;;
13147;SDS011;6639;50.956;4.242;2024-03-23T12:14:07;1.60;;;0.90;;
13147;SDS011;6639;50.956;4.242;2024-03-23T12:16:34;1.67;;;0.98;;
13147;SDS011;6639;50.956;4.242;2024-03-23T12:19:05;3.35;;;0.90;;
13147;SDS011;6639;50.956;4.242;2024-03-23T12:21:31;1.77;;;0.95;;
13147;SDS011;6639;50.956;4.242;2024-03-23T12:23:58;1.23;;;0.55;;
13147;SDS011;6639;50.956;4.242;2024-03-23T12:26:23;3.17;;;1.00;;
13147;SDS011;6639;50.956;4.242;2024-03-23T12:28:50;4.25;;;0.98;;
13147;SDS011;6639;50.956;4.242;2024-03-23T12:31:16;2.10;;;1.13;;
13147;SDS011;6639;50.956;4.242;2024-03-23T12:33:44;1.80;;;1.08;;
13147;SDS011;6639;50.956;4.242;2024-03-23T12:36:11;3.35;;;1.13;;
13147;SDS011;6639;50.956;4.242;2024-03-23T12:38:38;4.40;;;1.52;;
13147;SDS011;6639;50.956;4.242;2024-03-23T12:41:03;4.28;;;1.60;;
13147;SDS011;6639;50.956;4.242;2024-03-23T12:43:31;2.28;;;1.15;;
13147;SDS011;6639;50.956;4.242;2024-03-23T12:45:57;3.70;;;1.90;;
13147;SDS011;6639;50.956;4.242;2024-03-23T12:48:23;6.22;;;1.60;;
13147;SDS011;6639;50.956;4.242;2024-03-23T12:50:55;3.22;;;1.40;;
13147;SDS011;6639;50.956;4.242;2024-03-23T12:53:22;7.43;;;1.70;;
13147;SDS011;6639;50.956;4.242;2024-03-23T12:55:48;6.25;;;1.67;;
13147;SDS011;6639;50.956;4.242;2024-03-23T12:58:15;7.43;;;1.60;;
13147;SDS011;6639;50.956;4.242;2024-03-23T13:00:41;6.13;;;1.38;;
13147;SDS011;6639;50.956;4.242;2024-03-23T13:03:08;6.88;;;1.65;;
13147;SDS011;6639;50.956;4.242;2024-03-23T13:05:40;2.95;;;1.52;;
13147;SDS011;6639;50.956;4.242;2024-03-23T13:08:08;5.22;;;2.35;;
13147;SDS011;6639;50.956;4.242;2024-03-23T13:10:34;2.45;;;1.40;;
13147;SDS011;6639;50.956;4.242;2024-03-23T13:13:01;4.22;;;1.73;;
13147;SDS011;6639;50.956;4.242;2024-03-23T13:15:27;6.90;;;1.75;;
13147;SDS011;6639;50.956;4.242;2024-03-23T13:17:54;4.45;;;1.90;;
13147;SDS011;6639;50.956;4.242;2024-03-23T13:20:20;5.82;;;1.58;;
13147;SDS011;6639;50.956;4.242;2024-03-23T13:22:47;8.00;;;1.90;;
13147;SDS011;6639;50.956;4.242;2024-03-23T13:25:14;2.85;;;1.35;;
13147;SDS011;6639;50.956;4.242;2024-03-23T13:27:43;3.13;;;1.48;;
13147;SDS011;6639;50.956;4.242;2024-03-23T13:30:10;4.53;;;1.80;;
13147;SDS011;6639;50.956;4.242;2024-03-23T13:32:37;3.40;;;1.33;;
13147;SDS011;6639;50.956;4.242;2024-03-23T13:35:03;3.97;;;1.45;;
13147;SDS011;6639;50.956;4.242;2024-03-23T13:37:31;6.45;;;1.40;;
13147;SDS011;6639;50.956;4.242;2024-03-23T13:39:57;2.60;;;1.38;;
13147;SDS011;6639;50.956;4.242;2024-03-23T13:42:25;3.40;;;1.27;;
13147;SDS011;6639;50.956;4.242;2024-03-23T13:44:51;4.25;;;1.67;;
13147;SDS011;6639;50.956;4.242;2024-03-23T13:47:18;4.72;;;1.40;;
13147;SDS011;6639;50.956;4.242;2024-03-23T13:49:44;7.20;;;1.85;;
13147;SDS011;6639;50.956;4.242;2024-03-23T13:52:11;4.10;;;1.48;;
13147;SDS011;6639;50.956;4.242;2024-03-23T13:54:37;2.15;;;1.40;;
13147;SDS011;6639;50.956;4.242;2024-03-23T13:57:04;4.30;;;2.00;;
13147;SDS011;6639;50.956;4.242;2024-03-23T13:59:31;4.60;;;1.80;;
13147;SDS011;6639;50.956;4.242;2024-03-23T14:01:58;4.95;;;1.83;;
13147;SDS011;6639;50.956;4.242;2024-03-23T14:04:24;4.53;;;1.90;;
13147;SDS011;6639;50.956;4.242;2024-03-23T14:06:52;5.07;;;2.45;;
13147;SDS011;6639;50.956;4.242;2024-03-23T14:09:18;5.45;;;2.08;;
13147;SDS011;6639;50.956;4.242;2024-03-23T14:11:47;7.55;;;2.55;;
13147;SDS011;6639;50.956;4.242;2024-03-23T14:14:14;3.92;;;1.63;;
13147;SDS011;6639;50.956;4.242;2024-03-23T14:23:19;2.85;;;1.38;;
13147;SDS011;6639;50.956;4.242;2024-03-23T14:25:46;2.83;;;1.42;;
13147;SDS011;6639;50.956;4.242;2024-03-23T14:28:12;1.98;;;1.20;;
13147;SDS011;6639;50.956;4.242;2024-03-23T14:30:42;3.30;;;1.40;;
13147;SDS011;6639;50.956;4.242;2024-03-23T14:33:08;4.72;;;1.20;;
13147;SDS011;6639;50.956;4.242;2024-03-23T14:35:35;3.58;;;1.60;;
13147;SDS011;6639;50.956;4.242;2024-03-23T14:38:01;4.65;;;1.52;;
13147;SDS011;6639;50.956;4.242;2024-03-23T14:40:29;4.55;;;1.60;;
13147;SDS011;6639;50.956;4.242;2024-03-23T14:42:56;2.40;;;1.33;;
13147;SDS011;6639;50.956;4.242;2024-03-23T14:45:24;4.85;;;1.52;;
13147;SDS011;6639;50.956;4.242;2024-03-23T14:47:50;4.60;;;1.58;;
13147;SDS011;6639;50.956;4.242;2024-03-23T14:50:17;2.22;;;1.02;;
13147;SDS011;6639;50.956;4.242;2024-03-23T14:52:44;5.40;;;1.45;;
13147;SDS011;6639;50.956;4.242;2024-03-23T14:55:11;5.32;;;1.73;;
13147;SDS011;6639;50.956;4.242;2024-03-23T14:57:38;5.75;;;1.48;;
13147;SDS011;6639;50.956;4.242;2024-03-23T15:00:07;3.08;;;1.67;;
13147;SDS011;6639;50.956;4.242;2024-03-23T15:02:35;3.10;;;1.30;;
13147;SDS011;6639;50.956;4.242;2024-03-23T15:05:02;3.40;;;1.33;;
13147;SDS011;6639;50.956;4.242;2024-03-23T15:07:29;2.40;;;1.25;;
13147;SDS011;6639;50.956;4.242;2024-03-23T15:09:56;2.90;;;1.30;;
13147;SDS011;6639;50.956;4.242;2024-03-23T15:12:22;2.72;;;1.63;;
13147;SDS011;6639;50.956;4.242;2024-03-23T15:14:51;6.05;;;1.40;;
13147;SDS011;6639;50.956;4.242;2024-03-23T15:17:17;5.50;;;1.70;;
13147;SDS011;6639;50.956;4.242;2024-03-23T15:19:44;3.15;;;1.40;;
13147;SDS011;6639;50.956;4.242;2024-03-23T15:22:11;4.90;;;1.80;;
13147;SDS011;6639;50.956;4.242;2024-03-23T15:24:54;3.28;;;1.17;;
13147;SDS011;6639;50.956;4.242;2024-03-23T15:27:20;5.05;;;1.60;;
13147;SDS011;6639;50.956;4.242;2024-03-23T15:29:47;1.42;;;0.88;;
13147;SDS011;6639;50.956;4.242;2024-03-23T15:32:14;5.97;;;1.52;;
13147;SDS011;6639;50.956;4.242;2024-03-23T15:34:42;5.50;;;1.10;;
13147;SDS011;6639;50.956;4.242;2024-03-23T15:37:08;3.05;;;0.90;;
13147;SDS011;6639;50.956;4.242;2024-03-23T15:39:38;7.65;;;1.83;;
13147;SDS011;6639;50.956;4.242;2024-03-23T15:42:04;3.90;;;1.60;;
13147;SDS011;6639;50.956;4.242;2024-03-23T15:44:32;6.38;;;1.50;;
13147;SDS011;6639;50.956;4.242;2024-03-23T15:46:58;5.82;;;2.17;;
13147;SDS011;6639;50.956;4.242;2024-03-23T15:52:21;3.55;;;1.27;;
13147;SDS011;6639;50.956;4.242;2024-03-23T15:54:47;2.50;;;1.23;;
13147;SDS011;6639;50.956;4.242;2024-03-23T15:57:13;4.72;;;1.83;;
13147;SDS011;6639;50.956;4.242;2024-03-23T15:59:40;4.47;;;1.60;;
13147;SDS011;6639;50.956;4.242;2024-03-23T16:02:06;4.80;;;1.20;;